Thursday, June 21, 2018, 12:14 PM EDT
Back to Local

KMMK, Meriden Markham Municipal Airport

Location: Meriden, CT, United States Lat: 41.517
Local Time: 12:14 PM EDT (16:14 GMT) Lon: -72.833
Time Zone: US/Eastern Elev: 101 ft

Show me the last for .
Show Decoded

2018-06-21 11:53 METAR KMMK 211553Z AUTO 35005KT 10SM CLR 27/12 A2977 RMK AO2 SLP081 T02720117 =
2018-06-21 10:53 METAR KMMK 211453Z AUTO 36005KT 10SM SCT040 25/15 A2978 RMK AO2 SLP084 T02500150
                 51004 =
2018-06-21 09:53 METAR KMMK 211353Z AUTO VRB03KT 10SM CLR 23/17 A2978 RMK AO2 SLP083 T02330167 =
2018-06-21 08:53 METAR KMMK 211253Z AUTO 31005KT 10SM CLR 22/17 A2978 RMK AO2 SLP082 T02170172 =
2018-06-21 08:10 METAR KMMK 211210Z AUTO 17003KT 10SM FEW007 20/18 A2977 RMK AO2 T02000183 =
2018-06-21 07:53 METAR KMMK 211153Z AUTO 00000KT 10SM CLR 19/18 A2977 RMK AO2 SLP080 60001 70005
                 T01940183 10194 20189 51006 =
2018-06-21 06:53 METAR KMMK 211053Z AUTO 00000KT 10SM FEW070 OVC110 19/18 A2977 RMK AO2 SLP079
                 T01890178 =
2018-06-21 05:53 METAR KMMK 210953Z AUTO 00000KT 10SM OVC070 19/18 A2976 RMK AO2 SLP077 T01890178
                 =
2018-06-21 05:35 METAR KMMK 210935Z AUTO 00000KT 9SM SCT009 OVC070 19/18 A2976 RMK AO2 T01890183
                 =
2018-06-21 05:19 METAR KMMK 210919Z AUTO 00000KT 10SM BKN009 OVC080 19/18 A2976 RMK AO2 T01890183
                 =
2018-06-21 04:53 METAR KMMK 210853Z AUTO 00000KT 10SM FEW007 OVC075 19/18 A2975 RMK AO2
                 RAE0756B24E42 SLP074 P0000 60001 T01890178 55010 =
2018-06-21 04:10 METAR KMMK 210810Z AUTO 26003KT 10SM SCT004 OVC070 19/18 A2975 RMK AO2 RAE0756
                 P0000 T01890183 =
2018-06-21 03:53 METAR KMMK 210753Z AUTO 16005KT 10SM -RA OVC070 19/18 A2975 RMK AO2 RAB41 SLP072
                 P0000 T01890183 =
2018-06-21 02:53 METAR KMMK 210653Z AUTO 16006KT 10SM OVC060 19/18 A2976 RMK AO2 RAE46 SLP075
                 P0001 T01890183 =
2018-06-21 01:53 METAR KMMK 210553Z AUTO 24004KT 10SM -RA SCT065 OVC090 19/17 A2978 RMK AO2
                 SLP084 P0004 60004 T01940172 10233 20194 56004 =
2018-06-21 00:53 METAR KMMK 210453Z AUTO 18004KT 10SM -RA BKN075 OVC095 21/16 A2979 RMK AO2 RAB48
                 SLP085 P0000 T02060161 402830128 =
2018-06-20 23:53 METAR KMMK 210353Z AUTO 00000KT 10SM OVC085 21/16 A2979 RMK AO2 SLP085 T02060156
                 =
2018-06-20 22:53 METAR KMMK 210253Z AUTO 00000KT 10SM OVC100 21/15 A2980 RMK AO2 SLP089 T02110150
                 50005 =
2018-06-20 21:53 METAR KMMK 210153Z AUTO 00000KT 10SM OVC100 22/14 A2980 RMK AO2 SLP089 T02170144
                 =
2018-06-20 20:53 METAR KMMK 210053Z AUTO 00000KT 10SM BKN110 22/15 A2979 RMK AO2 SLP086 T02220150
                 =
2018-06-20 19:53 METAR KMMK 202353Z AUTO 19005KT 10SM FEW100 SCT120 23/13 A2978 RMK AO2 SLP084
                 T02330128 10283 20233 55006 =
2018-06-20 18:53 METAR KMMK 202253Z AUTO 20004KT 10SM FEW100 FEW110 25/13 A2978 RMK AO2 SLP082
                 T02500133 =
2018-06-20 17:53 METAR KMMK 202153Z AUTO 21005KT 10SM CLR 26/13 A2978 RMK AO2 SLP082 T02560133 =
2018-06-20 16:53 METAR KMMK 202053Z AUTO 21005KT 10SM CLR 26/12 A2980 RMK AO2 SLP090 T02610122
                 56011 =
2018-06-20 15:53 METAR KMMK 201953Z AUTO 20008KT 10SM CLR 27/12 A2981 RMK AO2 SLP095 T02670122 =
2018-06-20 14:53 METAR KMMK 201853Z AUTO 19009KT 10SM CLR 27/12 A2982 RMK AO2 SLP096 T02720122 =
2018-06-20 13:53 METAR KMMK 201753Z AUTO VRB03KT 10SM CLR 27/12 A2983 RMK AO2 SLP101 T02720117
                 10272 20189 58019 =
2018-06-20 12:53 METAR KMMK 201653Z AUTO 00000KT 10SM CLR 26/12 A2986 RMK AO2 SLP110 T02560117 =

Support USWX by starting your Amazon purchase here.